Rachel, Nevada Weather observations

Data are for observation ending at time listed.
 Day   Time    Ave.   Ave.  Ave.  Vector   Max.   Stn.    Total    Solar   Ave.  
  of    of     Air    Rel.  Wind   Wind    Wind   Baro.  Precip.   Rad.    Soil  
Year   Day     Temp.  Hum.  Speed  Dir.    Gust   Pres.                    Temp. 
2015   (PST)    F      %     mph   deg.    mph     mb.     in.     W/m2     F   
------------------------------------------------------------------------------
 141   15:50   65.4    22   13.0   184     17.4   846.6    0.00     156    66.7
 141   16:00   65.2    22   15.3   176     21.0   846.6    0.00     122    66.6
 141   16:10   64.8    22   13.8   188     23.8   846.5    0.00     102    66.4
 141   16:20   64.8    22   17.5   202     22.4   846.4    0.00     102    66.2
 141   16:30   64.4    22   11.7   195     17.0   846.4    0.00     110    66.1
 141   16:40   61.9    33   22.7   229     38.4   846.6    0.00     114    65.8
 141   16:50   59.5    40   27.2   235     40.2   846.4    0.00     113    65.4
 141   17:00   58.7    41   25.3   229     38.3   846.4    0.00     117    65.0
 141   17:10   58.5    42   23.4   230     35.2   846.3    0.00     127    64.6
 141   17:20   58.3    42   20.8   231     34.8   846.3    0.00     103    64.4
 141   17:30   57.9    42   18.7   236     28.5   846.2    0.00      76    64.1
 141   17:40   57.8    41   16.6   235     26.7   846.1    0.00      54    63.8
 141   17:50   58.2    39   16.8   230     28.0   846.0    0.00      42    63.6
 141   18:00   58.5    37   17.8   223     25.3   846.0    0.00      32    63.4
 141   18:10   58.9    35   17.4   219     24.0   846.0    0.00      28    63.3
 141   18:20   58.8    35   16.7   223     24.1   846.1    0.00      22    63.2
 141   18:30   59.1    34   15.8   227     23.0   846.1    0.00      15    63.0
 141   18:40   58.9    34   14.8   224     22.2   846.1    0.00       9    62.9
 141   18:50   58.6    35   10.8   225     17.2   846.2    0.00       4    62.7
 141   19:00   58.5    35   10.4   225     17.3   846.3    0.00       3    62.5
 141   19:10   58.3    35   12.1   236     19.6   846.3    0.00       2    62.4
 141   19:20   58.0    36   10.3   230     17.0   846.2    0.00       0    62.2
 141   19:30   58.0    36    9.8   219     15.9   846.1    0.00       0    62.0
 141   19:40   58.2    36   11.6   214     16.6   846.2    0.00       0    61.9
 141   19:50   58.1    36   10.4   212     14.3   846.2    0.00       0    61.8
 141   20:00   58.0    36    8.5   212     12.3   846.2    0.00       0    61.6
 141   20:10   58.0    36    7.1   190     11.2   846.2    0.00       0    61.6
 141   20:20   56.9    37    6.3   117      7.9   846.2    0.00       0    61.4
 141   20:30   56.2    39    8.9   131     10.9   846.1    0.00       0    61.1
 141   20:40   55.6    40    7.8   140     10.0   846.0    0.00       0    60.8
 141   20:50   54.6    41    7.9   138     10.2   846.0    0.00       0    60.5
 141   21:00   53.7    42    6.4   135      7.9   846.0    0.00       0    60.3
 141   21:10   52.0    45    5.7    19      9.6   846.1    0.00       0    60.0
 141   21:20   53.6    42    3.4     4      6.4   846.0    0.00       0    59.8
 141   21:30   54.8    40    4.1    43     10.1   846.0    0.00       0    59.8
 141   21:40   53.3    45    5.2    25      8.8   846.1    0.00       0    59.6
 141   21:50   52.9    45    4.9    53      7.5   846.1    0.00       0    59.5
 141   22:00   53.1    45    4.3    65      6.7   846.0    0.00       0    59.3
 141   22:10   51.8    47    4.0    38      5.5   846.0    0.00       0    59.1
 141   22:20   50.5    50    2.0    41      3.9   845.9    0.00       0    58.9
 141   22:30   50.2    51    3.7    53      4.7   845.9    0.00       0    58.7
 141   22:40   49.5    52    2.6    69      4.2   845.9    0.00       0    58.4
 141   22:50   49.8    53    0.3    69      0.9   845.9    0.00       0    58.4
 141   23:00   50.0    52    1.3   294      3.2   845.9    0.00       0    58.4
 141   23:10   49.7    53    1.1   281      2.6   845.9    0.00       0    58.3
 141   23:20   49.2    54    1.4   281      2.4   845.9    0.00       0    58.2
 141   23:30   48.7    55    3.1   267      4.6   845.9    0.00       0    58.0
 141   23:40   48.3    56    2.1   262      3.7   845.7    0.00       0    57.9
 141   23:50   47.8    57    1.5   250      2.8   845.7    0.00       0    57.7
 142    0:00   47.3    59    2.7   240      5.5   845.6    0.00       0    57.5
 142    0:10   47.2    60    0.7   233      2.7   845.5    0.00       0    57.3
 142    0:20   46.7    60    3.6    58      4.2   845.4    0.00       0    57.1
 142    0:30   46.9    60    2.3    47      4.1   845.5    0.00       0    56.9
 142    0:40   47.7    59    2.6   198      5.8   845.6    0.00       0    56.9
 142    0:50   48.0    58    2.8   286      4.5   845.6    0.00       0    56.9
 142    1:00   48.0    58    3.6   311      4.8   845.5    0.00       0    56.8
 142    1:10   47.9    59    3.2   319      4.3   845.5    0.00       0    56.7
 142    1:20   48.2    59    3.5   160      8.4   845.5    0.00       0    56.6
 142    1:30   48.6    59    4.8   209      7.7   845.7    0.00       0    56.5
 142    1:40   48.9    58    2.0   210      4.7   845.7    0.00       0    56.4
 142    1:50   48.9    58    3.3   117      5.3   845.8    0.00       0    56.4
 142    2:00   49.3    57    2.3   167      3.8   845.9    0.00       0    56.2
 142    2:10   49.8    55    1.0   150      3.4   846.0    0.00       0    56.3
 142    2:20   49.2    57    1.4    67      4.8   846.0    0.00       0    56.2
 142    2:30   50.0    54    1.1   280      3.4   846.1    0.00       0    56.3
 142    2:40   50.4    53    4.3   303      5.7   846.1    0.00       0    56.3
 142    2:50   50.0    54    5.4   321      6.4   846.1    0.00       0    56.2
 142    3:00   52.0    49    8.7   344     13.7   846.0    0.00       0    56.2
 142    3:10   53.0    49    5.7   323      8.8   846.2    0.00       0    56.2
 142    3:20   52.0    54    5.9   259     14.2   846.4    0.00       0    56.2
 142    3:30   52.8    51   10.8   250     15.0   846.3    0.00       0    56.2
 142    3:40   51.9    52    5.5   266      9.8   846.3    0.00       0    56.1
 142    3:50   50.7    54    5.8   298      8.1   846.3    0.00       0    56.0
 142    4:00   49.8    56    7.3   315      9.6   846.2    0.00       0    55.9
 142    4:10   49.9    56   10.6   309     13.8   846.1    0.00       0    55.6
 142    4:20   49.8    57    7.4   299     11.0   846.0    0.00       0    55.5
 142    4:30   48.2    60    2.7   337      4.7   846.0    0.00       2    55.4
 142    4:40   46.8    63    4.1   101      5.8   846.0    0.00       4    55.1
 142    4:50   48.0    60    4.7    98      6.9   845.9    0.00      11    54.8
 142    5:00   47.1    62    7.0    97      8.9   845.9    0.00      21    54.7
 142    5:10   47.6    62    7.4    78      9.3   846.0    0.00      47    54.6
 142    5:20   48.8    60    5.4    91      6.8   846.1    0.00      74    54.9
 142    5:30   50.1    57    5.3    89      6.6   846.3    0.00      65    55.3
 142    5:40   51.0    55    4.7   100      5.6   846.3    0.00      90    55.5
 142    5:50   52.8    52    3.8   107      4.8   846.4    0.00     144    56.0
 142    6:00   54.6    47    3.1    99      4.2   846.6    0.00     153    56.7
 142    6:10   55.0    46    2.7    88      4.1   846.8    0.00     144    57.2
 142    6:20   56.0    44    3.2    70      4.6   847.0    0.00     181    57.5
 142    6:30   56.0    43    3.5    62      5.0   847.1    0.00     184    58.0
 142    6:40   56.8    41    3.5    52      5.4   847.1    0.00     250    58.4
 142    6:50   57.3    40    3.9    57      6.1   847.1    0.00     287    58.9
 142    7:00   58.1    39    4.6    52      7.2   847.4    0.00     306    59.5
 142    7:10   58.0    39    5.7    37      8.7   847.4    0.00     303    60.0
 142    7:20   58.2    40    4.9    28      7.7   847.5    0.00     270    60.4
 142    7:30   58.5    39    4.6    22      7.0   847.6    0.00     228    60.4
 142    7:40   58.3    40    4.0    10      7.5   847.7    0.00     172    60.3
 142    7:50   58.6    38    5.3    29      9.2   847.6    0.00     204    60.3
 142    8:00   59.5    35    5.6    97     10.9   847.7    0.00     273    60.4
 142    8:10   60.0    32   11.6   146     16.6   847.7    0.00     262    60.7
 142    8:20   60.0    32   16.2   148     22.9   847.7    0.00     300    60.9
 142    8:30   59.7    33   20.9   141     25.1   847.6    0.00     339    61.2
 142    8:40   59.4    33   19.7   141     28.5   847.6    0.00     301    61.3
 142    8:50   58.5    35   22.8   147     29.0   847.5    0.00     239    61.3
 142    9:00   58.6    34   19.7   147     27.0   847.4    0.00     236    61.2
 142    9:10   58.9    34   22.0   141     29.9   847.3    0.00     242    61.1
 142    9:20   59.1    35   23.5   153     33.0   847.4    0.00     342    61.2
 142    9:30   59.2    37   22.8   168     30.9   847.4    0.00     592    61.6
 142    9:40   59.9    36   23.3   172     29.6   847.5    0.00     596    62.4
 142    9:50   59.7    34   22.0   158     34.3   847.6    0.00     595    63.0
 142   10:00   59.1    34   23.1   146     30.7   847.7    0.00     357    63.2
 142   10:10   58.5    36   23.5   143     29.1   847.7    0.00     308    63.0
 142   10:20   58.0    38   23.5   145     30.2   847.7    0.00     253    62.7
 142   10:30   57.5    39   24.5   144     31.3   847.6    0.00     237    62.4
 142   10:40   56.9    41   25.2   141     31.8   847.7    0.00     264    62.2
 142   10:50   57.0    42   22.4   139     28.5   847.9    0.00     339    62.0
 142   11:00   57.2    43   20.3   148     25.2   847.8    0.00     372    62.0
 142   11:10   56.5    44   19.0   155     24.5   847.7    0.00     315    62.1
 142   11:20   56.3    43   16.8   162     21.6   847.4    0.00     267    62.1
 142   11:30   57.3    42   17.9   171     22.9   847.1    0.00     365    62.0
 142   11:40   58.7    37   14.0   181     18.8   847.0    0.00     474    62.3
 142   11:50   60.1    34   11.2   164     15.9   846.9    0.00     725    62.6
 142   12:00   61.1    33   11.4   160     16.3   846.9    0.00     775    63.1
 142   12:10   61.0    32   11.1   152     17.6   847.0    0.00     729    63.4
 142   12:20   61.5    33   13.2   163     20.0   846.9    0.00     679    63.6
 142   12:30   62.0    30   13.6   152     19.0   846.8    0.00     709    63.8
 142   12:40   62.8    29   13.3   158     21.5   846.8    0.00     709    64.0
 142   12:50   63.1    27   11.6   155     18.0   846.8    0.00     711    64.2
 142   13:00   63.4    27   10.3   164     15.5   846.9    0.00     710    64.3
 142   13:10   64.5    25    9.8   143     17.0   846.9    0.00     720    64.5
 142   13:20   64.0    26    8.5   146     17.2   847.1    0.00     518    64.6
 142   13:30   64.7    25    9.2   159     16.3   847.1    0.00     709    64.8
 142   13:40   64.8    25    9.7   183     17.8   847.1    0.00     369    64.9
 142   13:50   64.9    25    7.9   194     13.9   847.2    0.00     599    65.0
 142   14:00   65.6    24    8.6   193     13.7   847.2    0.00     694    65.2
 142   14:10   66.0    24    4.6   220      9.1   847.1    0.00     732    65.4
 142   14:20   67.5    23    7.8   280     14.8   847.1    0.00     691    65.7
 142   14:30   66.7    24    7.8   261     16.7   847.2    0.00     366    65.8
 142   14:40   65.4    24    5.1   228     12.5   847.3    0.00     161    65.7
 142   14:50   65.1    30   10.2   265     18.3   847.1    0.00     196    65.6
 142   15:00   65.4    30   11.2   278     18.8   846.8    0.00     377    65.6
 142   15:10   65.5    28   10.0   272     15.6   846.7    0.00     359    65.6
 142   15:20   65.5    26   11.4   281     17.8   846.7    0.00     334    65.7
 142   15:30   64.9    27    9.8   306     17.2   846.7    0.00     327    65.8
 142   15:40   64.7    28   12.1   305     15.8   846.6    0.00     266    65.9

Return to St. George, Utah graphs page.


Western Regional Climate Center,wrcc@dri.edu